sensor_id;sensor_type;location;lat;lon;timestamp;P1;durP1;ratioP1;P2;durP2;ratioP2
52508;SDS011;38420;53.150;6.370;2024-03-22T00:00:19;29.42;;;16.95;;
52508;SDS011;38420;53.150;6.370;2024-03-22T00:02:45;28.33;;;15.90;;
52508;SDS011;38420;53.150;6.370;2024-03-22T00:05:11;33.63;;;15.32;;
52508;SDS011;38420;53.150;6.370;2024-03-22T00:07:36;28.13;;;15.43;;
52508;SDS011;38420;53.150;6.370;2024-03-22T00:10:03;31.08;;;17.08;;
52508;SDS011;38420;53.150;6.370;2024-03-22T00:12:32;33.75;;;17.52;;
52508;SDS011;38420;53.150;6.370;2024-03-22T00:14:57;34.20;;;18.08;;
52508;SDS011;38420;53.150;6.370;2024-03-22T00:17:23;29.55;;;16.17;;
52508;SDS011;38420;53.150;6.370;2024-03-22T00:19:49;31.65;;;16.02;;
52508;SDS011;38420;53.150;6.370;2024-03-22T00:22:14;34.33;;;17.35;;
52508;SDS011;38420;53.150;6.370;2024-03-22T00:24:40;27.40;;;14.75;;
52508;SDS011;38420;53.150;6.370;2024-03-22T00:27:06;39.08;;;17.13;;
52508;SDS011;38420;53.150;6.370;2024-03-22T00:29:32;31.80;;;18.20;;
52508;SDS011;38420;53.150;6.370;2024-03-22T00:31:58;38.63;;;19.98;;
52508;SDS011;38420;53.150;6.370;2024-03-22T00:34:23;34.38;;;18.42;;
52508;SDS011;38420;53.150;6.370;2024-03-22T00:36:49;35.88;;;18.95;;
52508;SDS011;38420;53.150;6.370;2024-03-22T00:39:16;39.40;;;21.25;;
52508;SDS011;38420;53.150;6.370;2024-03-22T00:41:42;42.75;;;19.55;;
52508;SDS011;38420;53.150;6.370;2024-03-22T00:44:08;36.72;;;18.73;;
52508;SDS011;38420;53.150;6.370;2024-03-22T00:46:33;36.92;;;21.55;;
52508;SDS011;38420;53.150;6.370;2024-03-22T00:49:00;37.55;;;20.20;;
52508;SDS011;38420;53.150;6.370;2024-03-22T00:51:26;38.63;;;19.77;;
52508;SDS011;38420;53.150;6.370;2024-03-22T00:53:52;39.92;;;19.52;;
52508;SDS011;38420;53.150;6.370;2024-03-22T00:56:18;44.38;;;20.98;;
52508;SDS011;38420;53.150;6.370;2024-03-22T00:58:43;37.40;;;19.42;;
52508;SDS011;38420;53.150;6.370;2024-03-22T01:01:09;37.90;;;20.35;;
52508;SDS011;38420;53.150;6.370;2024-03-22T01:03:34;44.45;;;21.17;;
52508;SDS011;38420;53.150;6.370;2024-03-22T01:06:01;42.60;;;21.25;;
52508;SDS011;38420;53.150;6.370;2024-03-22T01:08:27;43.00;;;20.60;;
52508;SDS011;38420;53.150;6.370;2024-03-22T01:10:53;44.70;;;21.73;;
52508;SDS011;38420;53.150;6.370;2024-03-22T01:13:18;43.72;;;19.20;;
52508;SDS011;38420;53.150;6.370;2024-03-22T01:15:44;45.67;;;23.35;;
52508;SDS011;38420;53.150;6.370;2024-03-22T01:18:11;43.47;;;22.17;;
52508;SDS011;38420;53.150;6.370;2024-03-22T01:20:37;43.97;;;22.90;;
52508;SDS011;38420;53.150;6.370;2024-03-22T01:23:03;40.35;;;21.65;;
52508;SDS011;38420;53.150;6.370;2024-03-22T01:25:29;51.78;;;23.00;;
52508;SDS011;38420;53.150;6.370;2024-03-22T01:27:55;46.17;;;24.92;;
52508;SDS011;38420;53.150;6.370;2024-03-22T01:30:21;42.97;;;22.70;;
52508;SDS011;38420;53.150;6.370;2024-03-22T01:32:47;44.95;;;23.40;;
52508;SDS011;38420;53.150;6.370;2024-03-22T01:35:13;43.33;;;24.15;;
52508;SDS011;38420;53.150;6.370;2024-03-22T01:37:38;47.45;;;24.60;;
52508;SDS011;38420;53.150;6.370;2024-03-22T01:40:04;44.28;;;23.58;;
52508;SDS011;38420;53.150;6.370;2024-03-22T01:42:30;52.28;;;26.83;;
52508;SDS011;38420;53.150;6.370;2024-03-22T01:44:56;53.88;;;25.67;;
52508;SDS011;38420;53.150;6.370;2024-03-22T01:47:22;48.67;;;25.80;;
52508;SDS011;38420;53.150;6.370;2024-03-22T01:49:48;48.95;;;25.10;;
52508;SDS011;38420;53.150;6.370;2024-03-22T01:52:16;52.40;;;26.70;;
52508;SDS011;38420;53.150;6.370;2024-03-22T01:54:41;48.47;;;27.17;;
52508;SDS011;38420;53.150;6.370;2024-03-22T01:57:07;55.15;;;29.20;;
52508;SDS011;38420;53.150;6.370;2024-03-22T01:59:33;55.03;;;27.73;;
52508;SDS011;38420;53.150;6.370;2024-03-22T02:01:59;55.30;;;27.38;;
52508;SDS011;38420;53.150;6.370;2024-03-22T02:04:25;57.92;;;30.80;;
52508;SDS011;38420;53.150;6.370;2024-03-22T02:06:51;62.03;;;30.90;;
52508;SDS011;38420;53.150;6.370;2024-03-22T02:09:17;62.03;;;31.85;;
52508;SDS011;38420;53.150;6.370;2024-03-22T02:11:44;58.45;;;30.52;;
52508;SDS011;38420;53.150;6.370;2024-03-22T02:14:10;53.70;;;29.50;;
52508;SDS011;38420;53.150;6.370;2024-03-22T02:16:36;55.90;;;28.35;;
52508;SDS011;38420;53.150;6.370;2024-03-22T02:19:01;56.33;;;28.27;;
52508;SDS011;38420;53.150;6.370;2024-03-22T02:21:27;52.95;;;29.13;;
52508;SDS011;38420;53.150;6.370;2024-03-22T02:23:52;52.67;;;28.60;;
52508;SDS011;38420;53.150;6.370;2024-03-22T02:26:18;53.40;;;29.33;;
52508;SDS011;38420;53.150;6.370;2024-03-22T02:28:44;59.97;;;29.70;;
52508;SDS011;38420;53.150;6.370;2024-03-22T02:31:09;61.53;;;29.73;;
52508;SDS011;38420;53.150;6.370;2024-03-22T02:33:35;68.65;;;31.20;;
52508;SDS011;38420;53.150;6.370;2024-03-22T02:36:01;58.28;;;31.80;;
52508;SDS011;38420;53.150;6.370;2024-03-22T02:38:26;59.05;;;29.23;;
52508;SDS011;38420;53.150;6.370;2024-03-22T02:40:52;57.42;;;31.02;;
52508;SDS011;38420;53.150;6.370;2024-03-22T02:43:19;59.97;;;31.08;;
52508;SDS011;38420;53.150;6.370;2024-03-22T02:45:46;61.88;;;30.77;;
52508;SDS011;38420;53.150;6.370;2024-03-22T02:48:13;61.67;;;32.25;;
52508;SDS011;38420;53.150;6.370;2024-03-22T02:50:38;66.43;;;31.63;;
52508;SDS011;38420;53.150;6.370;2024-03-22T02:53:04;60.25;;;30.60;;
52508;SDS011;38420;53.150;6.370;2024-03-22T02:55:35;62.15;;;29.60;;
52508;SDS011;38420;53.150;6.370;2024-03-22T02:58:02;57.17;;;29.60;;
52508;SDS011;38420;53.150;6.370;2024-03-22T03:00:28;59.95;;;30.25;;
52508;SDS011;38420;53.150;6.370;2024-03-22T03:02:53;59.95;;;29.67;;
52508;SDS011;38420;53.150;6.370;2024-03-22T03:05:19;56.40;;;30.45;;
52508;SDS011;38420;53.150;6.370;2024-03-22T03:07:45;62.10;;;30.92;;
52508;SDS011;38420;53.150;6.370;2024-03-22T03:10:12;63.25;;;30.88;;
52508;SDS011;38420;53.150;6.370;2024-03-22T03:12:38;60.60;;;31.17;;
52508;SDS011;38420;53.150;6.370;2024-03-22T03:15:03;70.88;;;31.85;;
52508;SDS011;38420;53.150;6.370;2024-03-22T03:17:29;63.78;;;31.23;;
52508;SDS011;38420;53.150;6.370;2024-03-22T03:19:55;63.70;;;31.75;;
52508;SDS011;38420;53.150;6.370;2024-03-22T03:22:20;67.32;;;34.22;;
52508;SDS011;38420;53.150;6.370;2024-03-22T03:24:46;70.43;;;30.65;;
52508;SDS011;38420;53.150;6.370;2024-03-22T03:27:11;73.15;;;32.13;;
52508;SDS011;38420;53.150;6.370;2024-03-22T03:29:37;60.35;;;29.60;;
52508;SDS011;38420;53.150;6.370;2024-03-22T03:32:03;64.13;;;31.80;;
52508;SDS011;38420;53.150;6.370;2024-03-22T03:34:29;71.55;;;36.25;;
52508;SDS011;38420;53.150;6.370;2024-03-22T03:36:54;60.80;;;29.88;;
52508;SDS011;38420;53.150;6.370;2024-03-22T03:39:20;68.68;;;31.63;;
52508;SDS011;38420;53.150;6.370;2024-03-22T03:41:46;69.78;;;32.22;;
52508;SDS011;38420;53.150;6.370;2024-03-22T03:44:11;63.75;;;27.98;;
52508;SDS011;38420;53.150;6.370;2024-03-22T03:46:37;66.90;;;32.10;;
52508;SDS011;38420;53.150;6.370;2024-03-22T03:49:03;68.85;;;32.25;;
52508;SDS011;38420;53.150;6.370;2024-03-22T03:51:28;59.13;;;29.77;;
52508;SDS011;38420;53.150;6.370;2024-03-22T03:53:54;59.83;;;30.02;;
52508;SDS011;38420;53.150;6.370;2024-03-22T03:56:20;62.25;;;31.55;;
52508;SDS011;38420;53.150;6.370;2024-03-22T03:58:46;63.25;;;28.65;;
52508;SDS011;38420;53.150;6.370;2024-03-22T04:01:12;59.97;;;29.40;;
52508;SDS011;38420;53.150;6.370;2024-03-22T04:03:37;60.35;;;30.15;;
52508;SDS011;38420;53.150;6.370;2024-03-22T04:06:03;70.85;;;34.38;;
52508;SDS011;38420;53.150;6.370;2024-03-22T04:08:29;64.47;;;31.13;;
52508;SDS011;38420;53.150;6.370;2024-03-22T04:10:56;51.35;;;25.63;;
52508;SDS011;38420;53.150;6.370;2024-03-22T04:13:22;61.40;;;29.73;;
52508;SDS011;38420;53.150;6.370;2024-03-22T04:15:48;60.42;;;28.23;;
52508;SDS011;38420;53.150;6.370;2024-03-22T04:18:14;68.75;;;30.02;;
52508;SDS011;38420;53.150;6.370;2024-03-22T04:20:40;67.78;;;31.98;;
52508;SDS011;38420;53.150;6.370;2024-03-22T04:23:05;61.75;;;31.05;;
52508;SDS011;38420;53.150;6.370;2024-03-22T04:25:31;63.85;;;31.50;;
52508;SDS011;38420;53.150;6.370;2024-03-22T04:27:57;64.20;;;29.80;;
52508;SDS011;38420;53.150;6.370;2024-03-22T04:30:22;55.85;;;28.63;;
52508;SDS011;38420;53.150;6.370;2024-03-22T04:32:48;64.80;;;30.23;;
52508;SDS011;38420;53.150;6.370;2024-03-22T04:35:14;58.13;;;28.60;;
52508;SDS011;38420;53.150;6.370;2024-03-22T04:37:39;68.35;;;31.13;;
52508;SDS011;38420;53.150;6.370;2024-03-22T04:40:05;67.30;;;33.20;;
52508;SDS011;38420;53.150;6.370;2024-03-22T04:42:31;58.15;;;30.05;;
52508;SDS011;38420;53.150;6.370;2024-03-22T04:44:57;58.72;;;28.70;;
52508;SDS011;38420;53.150;6.370;2024-03-22T04:47:23;63.50;;;31.23;;
52508;SDS011;38420;53.150;6.370;2024-03-22T04:49:48;54.10;;;29.88;;
52508;SDS011;38420;53.150;6.370;2024-03-22T04:52:14;64.72;;;30.83;;
52508;SDS011;38420;53.150;6.370;2024-03-22T04:54:40;56.10;;;28.42;;
52508;SDS011;38420;53.150;6.370;2024-03-22T04:57:05;65.30;;;29.60;;
52508;SDS011;38420;53.150;6.370;2024-03-22T04:59:31;67.45;;;28.88;;
52508;SDS011;38420;53.150;6.370;2024-03-22T05:01:57;53.65;;;27.10;;
52508;SDS011;38420;53.150;6.370;2024-03-22T05:04:22;56.83;;;28.20;;
52508;SDS011;38420;53.150;6.370;2024-03-22T05:06:48;54.30;;;28.35;;
52508;SDS011;38420;53.150;6.370;2024-03-22T05:09:14;52.88;;;25.02;;
52508;SDS011;38420;53.150;6.370;2024-03-22T05:11:39;57.63;;;27.63;;
52508;SDS011;38420;53.150;6.370;2024-03-22T05:14:05;58.47;;;26.73;;
52508;SDS011;38420;53.150;6.370;2024-03-22T05:16:31;59.42;;;26.52;;
52508;SDS011;38420;53.150;6.370;2024-03-22T05:18:56;62.35;;;27.23;;
52508;SDS011;38420;53.150;6.370;2024-03-22T05:21:22;58.67;;;27.75;;
52508;SDS011;38420;53.150;6.370;2024-03-22T05:23:47;51.05;;;24.48;;
52508;SDS011;38420;53.150;6.370;2024-03-22T05:26:13;57.50;;;27.63;;
52508;SDS011;38420;53.150;6.370;2024-03-22T05:28:39;48.20;;;23.00;;
52508;SDS011;38420;53.150;6.370;2024-03-22T05:31:05;50.55;;;24.10;;
52508;SDS011;38420;53.150;6.370;2024-03-22T05:33:31;46.35;;;25.83;;
52508;SDS011;38420;53.150;6.370;2024-03-22T05:35:57;51.97;;;25.17;;
52508;SDS011;38420;53.150;6.370;2024-03-22T05:38:22;49.15;;;26.25;;
52508;SDS011;38420;53.150;6.370;2024-03-22T05:40:48;46.78;;;26.35;;
52508;SDS011;38420;53.150;6.370;2024-03-22T05:43:14;46.03;;;24.85;;
52508;SDS011;38420;53.150;6.370;2024-03-22T05:45:39;46.40;;;27.67;;
52508;SDS011;38420;53.150;6.370;2024-03-22T05:48:05;45.25;;;27.92;;
52508;SDS011;38420;53.150;6.370;2024-03-22T05:50:31;50.58;;;28.92;;
52508;SDS011;38420;53.150;6.370;2024-03-22T05:52:57;41.78;;;27.23;;
52508;SDS011;38420;53.150;6.370;2024-03-22T05:55:22;42.45;;;28.30;;
52508;SDS011;38420;53.150;6.370;2024-03-22T05:57:48;44.72;;;27.00;;
52508;SDS011;38420;53.150;6.370;2024-03-22T06:00:14;42.83;;;26.50;;
52508;SDS011;38420;53.150;6.370;2024-03-22T06:02:40;41.30;;;28.75;;
52508;SDS011;38420;53.150;6.370;2024-03-22T06:05:06;40.38;;;28.58;;
52508;SDS011;38420;53.150;6.370;2024-03-22T06:07:32;35.22;;;28.05;;
52508;SDS011;38420;53.150;6.370;2024-03-22T06:10:05;39.92;;;27.40;;
52508;SDS011;38420;53.150;6.370;2024-03-22T06:12:31;39.05;;;27.42;;
52508;SDS011;38420;53.150;6.370;2024-03-22T06:14:57;37.42;;;29.98;;
52508;SDS011;38420;53.150;6.370;2024-03-22T06:17:22;40.67;;;31.38;;
52508;SDS011;38420;53.150;6.370;2024-03-22T06:19:48;37.25;;;30.38;;
52508;SDS011;38420;53.150;6.370;2024-03-22T06:22:14;44.33;;;30.90;;
52508;SDS011;38420;53.150;6.370;2024-03-22T06:24:39;47.38;;;34.50;;
52508;SDS011;38420;53.150;6.370;2024-03-22T06:27:05;47.38;;;34.80;;
52508;SDS011;38420;53.150;6.370;2024-03-22T06:29:32;42.55;;;34.58;;
52508;SDS011;38420;53.150;6.370;2024-03-22T06:31:57;51.33;;;37.55;;
52508;SDS011;38420;53.150;6.370;2024-03-22T06:34:23;44.13;;;34.65;;
52508;SDS011;38420;53.150;6.370;2024-03-22T06:36:49;42.53;;;32.00;;
52508;SDS011;38420;53.150;6.370;2024-03-22T06:39:15;34.05;;;30.40;;
52508;SDS011;38420;53.150;6.370;2024-03-22T06:41:41;39.67;;;31.02;;
52508;SDS011;38420;53.150;6.370;2024-03-22T06:44:07;38.53;;;34.42;;
52508;SDS011;38420;53.150;6.370;2024-03-22T06:46:37;41.72;;;34.53;;
52508;SDS011;38420;53.150;6.370;2024-03-22T06:49:02;39.83;;;35.13;;
52508;SDS011;38420;53.150;6.370;2024-03-22T06:51:28;45.80;;;35.55;;
52508;SDS011;38420;53.150;6.370;2024-03-22T06:53:54;38.15;;;34.17;;
52508;SDS011;38420;53.150;6.370;2024-03-22T06:56:19;45.92;;;36.08;;
52508;SDS011;38420;53.150;6.370;2024-03-22T06:58:45;37.20;;;33.03;;
52508;SDS011;38420;53.150;6.370;2024-03-22T07:01:11;48.63;;;35.72;;
52508;SDS011;38420;53.150;6.370;2024-03-22T07:03:37;39.63;;;34.40;;
52508;SDS011;38420;53.150;6.370;2024-03-22T07:06:02;41.05;;;34.08;;
52508;SDS011;38420;53.150;6.370;2024-03-22T07:08:30;36.10;;;32.42;;
52508;SDS011;38420;53.150;6.370;2024-03-22T07:10:56;35.70;;;31.73;;
52508;SDS011;38420;53.150;6.370;2024-03-22T07:13:22;35.90;;;32.35;;
52508;SDS011;38420;53.150;6.370;2024-03-22T07:15:48;45.13;;;34.05;;
52508;SDS011;38420;53.150;6.370;2024-03-22T07:18:14;38.15;;;33.55;;
52508;SDS011;38420;53.150;6.370;2024-03-22T07:20:41;47.03;;;36.42;;
52508;SDS011;38420;53.150;6.370;2024-03-22T07:23:07;38.33;;;33.55;;
52508;SDS011;38420;53.150;6.370;2024-03-22T07:25:33;46.42;;;35.75;;
52508;SDS011;38420;53.150;6.370;2024-03-22T07:27:58;39.67;;;35.08;;
52508;SDS011;38420;53.150;6.370;2024-03-22T07:30:24;38.97;;;35.03;;
52508;SDS011;38420;53.150;6.370;2024-03-22T07:32:50;39.53;;;35.42;;
52508;SDS011;38420;53.150;6.370;2024-03-22T07:35:16;42.45;;;37.85;;
52508;SDS011;38420;53.150;6.370;2024-03-22T07:37:41;40.85;;;36.70;;
52508;SDS011;38420;53.150;6.370;2024-03-22T07:40:07;38.83;;;34.80;;
52508;SDS011;38420;53.150;6.370;2024-03-22T07:42:33;41.90;;;36.42;;
52508;SDS011;38420;53.150;6.370;2024-03-22T07:44:59;39.75;;;35.67;;
52508;SDS011;38420;53.150;6.370;2024-03-22T07:47:25;43.97;;;39.33;;
52508;SDS011;38420;53.150;6.370;2024-03-22T07:49:50;45.35;;;39.60;;
52508;SDS011;38420;53.150;6.370;2024-03-22T07:52:16;41.83;;;37.63;;
52508;SDS011;38420;53.150;6.370;2024-03-22T07:54:42;42.58;;;38.40;;
52508;SDS011;38420;53.150;6.370;2024-03-22T07:57:07;45.47;;;40.60;;
52508;SDS011;38420;53.150;6.370;2024-03-22T07:59:35;44.75;;;39.35;;
52508;SDS011;38420;53.150;6.370;2024-03-22T08:02:01;44.08;;;40.30;;
52508;SDS011;38420;53.150;6.370;2024-03-22T08:04:28;47.08;;;39.70;;
52508;SDS011;38420;53.150;6.370;2024-03-22T08:06:54;42.58;;;38.78;;
52508;SDS011;38420;53.150;6.370;2024-03-22T08:09:20;46.88;;;41.83;;
52508;SDS011;38420;53.150;6.370;2024-03-22T08:11:46;44.83;;;40.40;;
52508;SDS011;38420;53.150;6.370;2024-03-22T08:14:13;43.13;;;39.45;;
52508;SDS011;38420;53.150;6.370;2024-03-22T08:16:38;45.47;;;40.97;;
52508;SDS011;38420;53.150;6.370;2024-03-22T08:19:04;43.05;;;38.88;;
52508;SDS011;38420;53.150;6.370;2024-03-22T08:21:29;44.22;;;39.80;;
52508;SDS011;38420;53.150;6.370;2024-03-22T08:23:55;43.80;;;40.10;;
52508;SDS011;38420;53.150;6.370;2024-03-22T08:26:21;41.78;;;38.03;;
52508;SDS011;38420;53.150;6.370;2024-03-22T08:28:47;43.88;;;40.15;;
52508;SDS011;38420;53.150;6.370;2024-03-22T08:31:13;41.78;;;38.13;;
52508;SDS011;38420;53.150;6.370;2024-03-22T08:33:39;40.63;;;37.50;;
52508;SDS011;38420;53.150;6.370;2024-03-22T08:36:05;40.38;;;37.20;;
52508;SDS011;38420;53.150;6.370;2024-03-22T08:38:31;43.17;;;39.78;;
52508;SDS011;38420;53.150;6.370;2024-03-22T08:40:57;41.17;;;38.08;;
52508;SDS011;38420;53.150;6.370;2024-03-22T08:43:22;42.20;;;38.38;;
52508;SDS011;38420;53.150;6.370;2024-03-22T08:45:50;38.25;;;35.35;;
52508;SDS011;38420;53.150;6.370;2024-03-22T08:48:17;42.15;;;39.15;;
52508;SDS011;38420;53.150;6.370;2024-03-22T08:50:43;40.05;;;37.15;;
52508;SDS011;38420;53.150;6.370;2024-03-22T08:53:09;41.42;;;38.08;;
52508;SDS011;38420;53.150;6.370;2024-03-22T08:55:34;42.25;;;38.97;;
52508;SDS011;38420;53.150;6.370;2024-03-22T08:58:00;43.13;;;40.00;;
52508;SDS011;38420;53.150;6.370;2024-03-22T09:00:26;42.75;;;39.72;;
52508;SDS011;38420;53.150;6.370;2024-03-22T09:02:52;40.35;;;37.45;;
52508;SDS011;38420;53.150;6.370;2024-03-22T09:05:17;42.30;;;39.17;;
52508;SDS011;38420;53.150;6.370;2024-03-22T09:07:43;42.55;;;39.35;;
52508;SDS011;38420;53.150;6.370;2024-03-22T09:10:09;42.05;;;38.40;;
52508;SDS011;38420;53.150;6.370;2024-03-22T09:12:36;41.53;;;38.78;;
52508;SDS011;38420;53.150;6.370;2024-03-22T09:15:02;40.42;;;37.50;;
52508;SDS011;38420;53.150;6.370;2024-03-22T09:17:28;40.70;;;37.83;;
52508;SDS011;38420;53.150;6.370;2024-03-22T09:19:54;39.88;;;36.88;;
52508;SDS011;38420;53.150;6.370;2024-03-22T09:22:19;40.40;;;37.42;;
52508;SDS011;38420;53.150;6.370;2024-03-22T09:24:45;40.22;;;37.38;;
52508;SDS011;38420;53.150;6.370;2024-03-22T09:27:11;40.47;;;37.38;;
52508;SDS011;38420;53.150;6.370;2024-03-22T09:29:37;40.67;;;37.50;;
52508;SDS011;38420;53.150;6.370;2024-03-22T09:32:03;40.00;;;37.10;;
52508;SDS011;38420;53.150;6.370;2024-03-22T09:34:29;41.65;;;38.63;;
52508;SDS011;38420;53.150;6.370;2024-03-22T09:36:55;41.30;;;38.38;;
52508;SDS011;38420;53.150;6.370;2024-03-22T09:39:21;41.70;;;38.55;;
52508;SDS011;38420;53.150;6.370;2024-03-22T09:41:47;43.25;;;40.20;;
52508;SDS011;38420;53.150;6.370;2024-03-22T09:44:15;40.92;;;37.55;;
52508;SDS011;38420;53.150;6.370;2024-03-22T09:46:44;41.80;;;38.75;;
52508;SDS011;38420;53.150;6.370;2024-03-22T09:49:12;41.78;;;38.92;;
52508;SDS011;38420;53.150;6.370;2024-03-22T09:51:41;40.15;;;37.22;;
52508;SDS011;38420;53.150;6.370;2024-03-22T09:54:09;41.87;;;38.77;;
52508;SDS011;38420;53.150;6.370;2024-03-22T09:56:38;39.85;;;36.85;;
52508;SDS011;38420;53.150;6.370;2024-03-22T09:59:08;40.80;;;37.80;;
52508;SDS011;38420;53.150;6.370;2024-03-22T10:01:37;42.47;;;39.47;;
52508;SDS011;38420;53.150;6.370;2024-03-22T10:04:05;42.13;;;39.10;;
52508;SDS011;38420;53.150;6.370;2024-03-22T10:06:30;42.67;;;39.70;;
52508;SDS011;38420;53.150;6.370;2024-03-22T10:08:59;43.35;;;40.03;;
52508;SDS011;38420;53.150;6.370;2024-03-22T10:11:26;44.30;;;40.58;;
52508;SDS011;38420;53.150;6.370;2024-03-22T10:13:52;41.00;;;38.08;;
52508;SDS011;38420;53.150;6.370;2024-03-22T10:16:20;38.83;;;36.13;;
52508;SDS011;38420;53.150;6.370;2024-03-22T10:18:46;40.70;;;37.90;;
52508;SDS011;38420;53.150;6.370;2024-03-22T10:21:16;42.30;;;39.30;;
52508;SDS011;38420;53.150;6.370;2024-03-22T10:23:43;39.55;;;36.80;;
52508;SDS011;38420;53.150;6.370;2024-03-22T10:26:09;41.78;;;38.53;;
52508;SDS011;38420;53.150;6.370;2024-03-22T10:28:35;42.28;;;39.08;;
52508;SDS011;38420;53.150;6.370;2024-03-22T10:31:01;39.03;;;36.53;;
52508;SDS011;38420;53.150;6.370;2024-03-22T10:33:28;37.10;;;34.58;;
52508;SDS011;38420;53.150;6.370;2024-03-22T10:35:54;40.25;;;37.35;;
52508;SDS011;38420;53.150;6.370;2024-03-22T10:38:21;36.47;;;34.08;;
52508;SDS011;38420;53.150;6.370;2024-03-22T10:40:47;41.15;;;38.08;;
52508;SDS011;38420;53.150;6.370;2024-03-22T10:43:14;38.70;;;36.17;;
52508;SDS011;38420;53.150;6.370;2024-03-22T10:45:40;39.22;;;36.55;;
52508;SDS011;38420;53.150;6.370;2024-03-22T10:48:10;38.13;;;35.72;;
52508;SDS011;38420;53.150;6.370;2024-03-22T10:50:40;39.60;;;36.90;;
52508;SDS011;38420;53.150;6.370;2024-03-22T10:53:15;37.80;;;35.28;;
52508;SDS011;38420;53.150;6.370;2024-03-22T10:55:45;39.80;;;37.20;;
52508;SDS011;38420;53.150;6.370;2024-03-22T10:58:16;40.00;;;37.45;;
52508;SDS011;38420;53.150;6.370;2024-03-22T11:00:43;40.83;;;37.93;;
52508;SDS011;38420;53.150;6.370;2024-03-22T11:03:09;41.35;;;38.55;;
52508;SDS011;38420;53.150;6.370;2024-03-22T11:05:45;40.95;;;38.10;;
52508;SDS011;38420;53.150;6.370;2024-03-22T11:08:25;38.67;;;36.17;;
52508;SDS011;38420;53.150;6.370;2024-03-22T11:10:52;37.90;;;35.50;;
52508;SDS011;38420;53.150;6.370;2024-03-22T11:13:18;36.72;;;34.45;;
52508;SDS011;38420;53.150;6.370;2024-03-22T11:15:44;33.20;;;31.40;;
52508;SDS011;38420;53.150;6.370;2024-03-22T11:18:13;33.95;;;31.75;;
52508;SDS011;38420;53.150;6.370;2024-03-22T11:20:38;34.50;;;32.33;;
52508;SDS011;38420;53.150;6.370;2024-03-22T11:23:04;37.00;;;34.67;;
52508;SDS011;38420;53.150;6.370;2024-03-22T11:25:32;35.33;;;33.33;;
52508;SDS011;38420;53.150;6.370;2024-03-22T11:27:58;38.03;;;35.72;;
52508;SDS011;38420;53.150;6.370;2024-03-22T11:30:26;37.28;;;35.13;;
52508;SDS011;38420;53.150;6.370;2024-03-22T11:32:55;35.25;;;33.22;;
52508;SDS011;38420;53.150;6.370;2024-03-22T11:35:21;34.25;;;32.45;;
52508;SDS011;38420;53.150;6.370;2024-03-22T11:37:47;33.67;;;31.70;;
52508;SDS011;38420;53.150;6.370;2024-03-22T11:40:14;35.33;;;33.22;;
52508;SDS011;38420;53.150;6.370;2024-03-22T11:42:41;35.65;;;33.58;;
52508;SDS011;38420;53.150;6.370;2024-03-22T11:45:08;32.70;;;30.75;;
52508;SDS011;38420;53.150;6.370;2024-03-22T11:47:35;30.42;;;28.85;;
52508;SDS011;38420;53.150;6.370;2024-03-22T11:50:02;30.17;;;28.58;;
52508;SDS011;38420;53.150;6.370;2024-03-22T11:52:28;24.23;;;22.92;;
52508;SDS011;38420;53.150;6.370;2024-03-22T11:54:54;22.30;;;20.90;;
52508;SDS011;38420;53.150;6.370;2024-03-22T11:57:21;23.58;;;22.05;;
52508;SDS011;38420;53.150;6.370;2024-03-22T11:59:47;25.33;;;23.55;;
52508;SDS011;38420;53.150;6.370;2024-03-22T12:02:12;27.60;;;26.15;;
52508;SDS011;38420;53.150;6.370;2024-03-22T12:04:45;28.40;;;26.88;;
52508;SDS011;38420;53.150;6.370;2024-03-22T12:07:16;26.95;;;25.25;;
52508;SDS011;38420;53.150;6.370;2024-03-22T12:09:43;26.45;;;24.88;;
52508;SDS011;38420;53.150;6.370;2024-03-22T12:12:10;26.40;;;24.73;;
52508;SDS011;38420;53.150;6.370;2024-03-22T12:14:37;26.10;;;24.40;;
52508;SDS011;38420;53.150;6.370;2024-03-22T12:17:03;27.23;;;25.40;;
52508;SDS011;38420;53.150;6.370;2024-03-22T12:19:30;28.35;;;26.48;;
52508;SDS011;38420;53.150;6.370;2024-03-22T12:21:56;26.38;;;24.38;;
52508;SDS011;38420;53.150;6.370;2024-03-22T12:24:22;24.05;;;22.52;;
52508;SDS011;38420;53.150;6.370;2024-03-22T12:26:49;24.10;;;22.48;;
52508;SDS011;38420;53.150;6.370;2024-03-22T12:29:15;24.10;;;22.70;;
52508;SDS011;38420;53.150;6.370;2024-03-22T12:31:41;17.38;;;16.10;;
52508;SDS011;38420;53.150;6.370;2024-03-22T12:34:07;11.82;;;10.63;;
52508;SDS011;38420;53.150;6.370;2024-03-22T12:36:33;8.90;;;8.02;;
52508;SDS011;38420;53.150;6.370;2024-03-22T12:38:59;8.98;;;5.75;;
52508;SDS011;38420;53.150;6.370;2024-03-22T12:41:25;9.73;;;5.40;;
52508;SDS011;38420;53.150;6.370;2024-03-22T12:43:51;15.00;;;4.72;;
52508;SDS011;38420;53.150;6.370;2024-03-22T12:46:17;11.88;;;4.90;;
52508;SDS011;38420;53.150;6.370;2024-03-22T12:48:42;9.65;;;4.38;;
52508;SDS011;38420;53.150;6.370;2024-03-22T12:51:08;10.00;;;3.42;;
52508;SDS011;38420;53.150;6.370;2024-03-22T12:53:34;13.60;;;3.88;;
52508;SDS011;38420;53.150;6.370;2024-03-22T12:56:00;9.00;;;3.50;;
52508;SDS011;38420;53.150;6.370;2024-03-22T12:58:25;12.82;;;4.97;;
52508;SDS011;38420;53.150;6.370;2024-03-22T13:00:51;10.57;;;4.00;;
52508;SDS011;38420;53.150;6.370;2024-03-22T13:03:17;18.05;;;4.50;;
52508;SDS011;38420;53.150;6.370;2024-03-22T13:05:43;16.40;;;4.90;;
52508;SDS011;38420;53.150;6.370;2024-03-22T13:08:08;12.85;;;4.63;;
52508;SDS011;38420;53.150;6.370;2024-03-22T13:10:34;13.65;;;5.28;;
52508;SDS011;38420;53.150;6.370;2024-03-22T13:13:00;10.82;;;3.33;;
52508;SDS011;38420;53.150;6.370;2024-03-22T13:15:25;9.23;;;3.70;;
52508;SDS011;38420;53.150;6.370;2024-03-22T13:17:51;7.65;;;3.83;;
52508;SDS011;38420;53.150;6.370;2024-03-22T13:20:21;11.98;;;4.28;;
52508;SDS011;38420;53.150;6.370;2024-03-22T13:22:46;15.20;;;3.60;;
52508;SDS011;38420;53.150;6.370;2024-03-22T13:25:12;15.35;;;4.40;;
52508;SDS011;38420;53.150;6.370;2024-03-22T13:27:38;15.23;;;5.07;;
52508;SDS011;38420;53.150;6.370;2024-03-22T13:30:06;16.13;;;4.65;;
52508;SDS011;38420;53.150;6.370;2024-03-22T13:32:36;10.30;;;3.90;;
52508;SDS011;38420;53.150;6.370;2024-03-22T13:35:03;11.32;;;3.65;;
52508;SDS011;38420;53.150;6.370;2024-03-22T13:37:29;20.73;;;4.57;;
52508;SDS011;38420;53.150;6.370;2024-03-22T13:39:55;13.90;;;5.75;;
52508;SDS011;38420;53.150;6.370;2024-03-22T13:42:21;15.68;;;5.05;;
52508;SDS011;38420;53.150;6.370;2024-03-22T13:44:47;16.13;;;4.22;;
52508;SDS011;38420;53.150;6.370;2024-03-22T13:47:12;11.68;;;4.50;;
52508;SDS011;38420;53.150;6.370;2024-03-22T13:49:38;19.88;;;3.58;;
52508;SDS011;38420;53.150;6.370;2024-03-22T13:52:06;9.35;;;3.00;;
52508;SDS011;38420;53.150;6.370;2024-03-22T13:54:32;10.98;;;3.25;;
52508;SDS011;38420;53.150;6.370;2024-03-22T13:56:58;12.00;;;3.83;;
52508;SDS011;38420;53.150;6.370;2024-03-22T13:59:24;10.55;;;2.45;;
52508;SDS011;38420;53.150;6.370;2024-03-22T14:01:49;11.25;;;2.58;;
52508;SDS011;38420;53.150;6.370;2024-03-22T14:04:15;11.18;;;2.45;;
52508;SDS011;38420;53.150;6.370;2024-03-22T14:06:40;10.45;;;2.55;;
52508;SDS011;38420;53.150;6.370;2024-03-22T14:09:09;8.93;;;2.58;;
52508;SDS011;38420;53.150;6.370;2024-03-22T14:11:35;8.80;;;2.17;;
52508;SDS011;38420;53.150;6.370;2024-03-22T14:14:01;10.10;;;2.72;;
52508;SDS011;38420;53.150;6.370;2024-03-22T14:16:27;13.63;;;3.30;;